TimeEST,TemperatureF,Dew PointF,Humidity,Sea Level PressureIn,VisibilityMPH,Wind Direction,Wind SpeedMPH,Gust SpeedMPH,PrecipitationIn,Events,Conditions,WindDirDegrees,DateUTC
12:54 AM,48.0,42.1,80,30.21,10.0,NNE,9.2,-,N/A,,Overcast,20,2012-11-20 05:54:00
1:54 AM,46.9,41.0,80,30.20,10.0,NNE,8.1,-,N/A,,Overcast,30,2012-11-20 06:54:00
2:54 AM,46.0,39.9,79,30.19,10.0,North,10.4,-,N/A,,Overcast,10,2012-11-20 07:54:00
3:54 AM,46.0,39.0,76,30.19,10.0,North,8.1,-,N/A,,Overcast,360,2012-11-20 08:54:00
4:54 AM,45.0,37.9,76,30.18,10.0,North,9.2,-,N/A,,Overcast,10,2012-11-20 09:54:00
5:54 AM,45.0,37.9,76,30.19,10.0,NNE,5.8,-,N/A,,Overcast,20,2012-11-20 10:54:00
6:54 AM,44.1,37.0,76,30.19,10.0,North,4.6,-,N/A,,Overcast,10,2012-11-20 11:54:00
7:54 AM,43.0,37.0,80,30.20,10.0,North,5.8,-,N/A,,Overcast,10,2012-11-20 12:54:00
8:15 AM,42.8,37.4,81,30.19,10.0,North,6.9,-,N/A,,Partly Cloudy,10,2012-11-20 13:15:00
8:54 AM,45.0,37.9,76,30.18,10.0,North,8.1,-,N/A,,Clear,360,2012-11-20 13:54:00
9:54 AM,48.0,37.9,68,30.18,10.0,Variable,3.5,-,N/A,,Scattered Clouds,0,2012-11-20 14:54:00
10:04 AM,48.2,37.4,66,30.18,10.0,North,9.2,-,N/A,,Mostly Cloudy,360,2012-11-20 15:04:00
10:54 AM,48.9,37.9,66,30.16,10.0,NNE,8.1,-,N/A,,Partly Cloudy,30,2012-11-20 15:54:00
11:54 AM,52.0,37.0,57,30.13,10.0,North,10.4,-,N/A,,Clear,360,2012-11-20 16:54:00
12:54 PM,52.0,36.0,54,30.12,10.0,North,9.2,-,N/A,,Clear,10,2012-11-20 17:54:00
1:54 PM,51.1,39.0,63,30.11,10.0,ENE,6.9,-,N/A,,Clear,70,2012-11-20 18:54:00
2:54 PM,51.1,36.0,56,30.11,10.0,NNE,6.9,-,N/A,,Clear,20,2012-11-20 19:54:00
3:54 PM,46.9,37.9,71,30.12,10.0,East,5.8,-,N/A,,Clear,90,2012-11-20 20:54:00
4:54 PM,45.0,37.9,76,30.12,10.0,ENE,4.6,-,N/A,,Clear,70,2012-11-20 21:54:00
5:54 PM,43.0,37.0,80,30.13,10.0,NE,4.6,-,N/A,,Clear,50,2012-11-20 22:54:00
6:54 PM,42.1,36.0,79,30.12,10.0,NNE,5.8,-,N/A,,Clear,30,2012-11-20 23:54:00
7:54 PM,42.1,36.0,79,30.13,10.0,North,3.5,-,N/A,,Clear,10,2012-11-21 00:54:00
8:54 PM,41.0,36.0,82,30.14,10.0,North,3.5,-,N/A,,Clear,360,2012-11-21 01:54:00
9:54 PM,39.9,35.1,83,30.14,10.0,NNE,4.6,-,N/A,,Clear,20,2012-11-21 02:54:00
10:54 PM,41.0,36.0,82,30.14,10.0,North,5.8,-,N/A,,Clear,10,2012-11-21 03:54:00
11:54 PM,39.9,35.1,83,30.14,10.0,NNE,3.5,-,N/A,,Clear,20,2012-11-21 04:54:00